YMA7002 YBRK-YSTW
Flight info
| Callsign | YMA7002 |
|---|---|
| Flight time | N/A |
| Altitude | 25000 |
| Route | RUROX DCT IRMOX DCT TW |
| Aircraft | DH8D/M-SDE2E3FGRY/H |
Departure
| Time | 2026-05-04 22:22 |
|---|---|
| Airport | Rockhampton Airport (YBRK) |
Arrival
| Time | N/A |
|---|---|
| Airport | Tamworth Airport (YSTW) |
| Time | Latitude | Longitude | Altitude | Speed | Heading |
|---|---|---|---|---|---|
| 2026-05-04 22:09 | -23.37893 | 150.47781 | 45 ft | 0 kts | 106° |
| 2026-05-04 22:18 | -23.37904 | 150.47786 | 40 ft | 4 kts | 200° |
| 2026-05-04 22:19 | -23.37898 | 150.47736 | 40 ft | 10 kts | 326° |
| 2026-05-04 22:19 | -23.37828 | 150.47700 | 41 ft | 11 kts | 339° |
| 2026-05-04 22:19 | -23.37753 | 150.47665 | 42 ft | 11 kts | 335° |
| 2026-05-04 22:19 | -23.37692 | 150.47610 | 42 ft | 11 kts | 293° |
| 2026-05-04 22:20 | -23.37675 | 150.47523 | 42 ft | 11 kts | 279° |
| 2026-05-04 22:20 | -23.37661 | 150.47443 | 42 ft | 11 kts | 281° |
| 2026-05-04 22:20 | -23.37618 | 150.47369 | 42 ft | 16 kts | 330° |
| 2026-05-04 22:20 | -23.37510 | 150.47317 | 42 ft | 16 kts | 339° |
| 2026-05-04 22:21 | -23.37409 | 150.47276 | 42 ft | 14 kts | 337° |
| 2026-05-04 22:21 | -23.37320 | 150.47232 | 42 ft | 13 kts | 334° |
| 2026-05-04 22:21 | -23.37256 | 150.47171 | 42 ft | 11 kts | 341° |
| 2026-05-04 22:21 | -23.37251 | 150.47208 | 42 ft | 0 kts | 154° |
| 2026-05-04 22:22 | -23.37252 | 150.47209 | 42 ft | 2 kts | 153° |
| 2026-05-04 22:22 | -23.37633 | 150.47371 | 42 ft | 109 kts | 158° |
| 2026-05-04 22:22 | -23.38500 | 150.47746 | 321 ft | 145 kts | 160° |
| 2026-05-04 22:22 | -23.39498 | 150.48161 | 914 ft | 162 kts | 160° |
| 2026-05-04 22:23 | -23.40589 | 150.48625 | 1512 ft | 175 kts | 159° |
| 2026-05-04 22:23 | -23.41770 | 150.49135 | 1993 ft | 192 kts | 160° |
| 2026-05-04 22:23 | -23.43056 | 150.49681 | 2544 ft | 205 kts | 159° |
| 2026-05-04 22:23 | -23.44420 | 150.50272 | 3045 ft | 219 kts | 159° |
| 2026-05-04 22:24 | -23.45836 | 150.50882 | 3756 ft | 221 kts | 159° |
| 2026-05-04 22:24 | -23.47252 | 150.51497 | 4524 ft | 222 kts | 159° |
| 2026-05-04 22:24 | -23.48717 | 150.52029 | 5267 ft | 223 kts | 171° |
| 2026-05-04 22:24 | -23.50280 | 150.52033 | 5980 ft | 226 kts | 182° |
| 2026-05-04 22:25 | -23.51843 | 150.51927 | 6679 ft | 229 kts | 182° |
| 2026-05-04 22:25 | -23.53431 | 150.51820 | 7376 ft | 231 kts | 182° |
| 2026-05-04 22:25 | -23.55045 | 150.51715 | 8061 ft | 234 kts | 182° |
| 2026-05-04 22:25 | -23.56671 | 150.51611 | 8731 ft | 236 kts | 182° |
| 2026-05-04 22:26 | -23.58307 | 150.51511 | 9396 ft | 238 kts | 181° |
| 2026-05-04 22:26 | -23.59966 | 150.51411 | 10040 ft | 241 kts | 182° |
| 2026-05-04 22:26 | -23.61645 | 150.51312 | 10655 ft | 245 kts | 182° |
| 2026-05-04 22:26 | -23.63355 | 150.51213 | 11252 ft | 248 kts | 182° |
| 2026-05-04 22:27 | -23.65099 | 150.51112 | 11835 ft | 251 kts | 182° |
| 2026-05-04 22:27 | -23.66833 | 150.51013 | 12390 ft | 254 kts | 183° |
| 2026-05-04 22:27 | -23.68594 | 150.50913 | 12946 ft | 256 kts | 184° |
| 2026-05-04 22:27 | -23.70383 | 150.50810 | 13483 ft | 258 kts | 185° |
| 2026-05-04 22:28 | -23.72188 | 150.50707 | 13998 ft | 261 kts | 185° |
| 2026-05-04 22:28 | -23.74023 | 150.50603 | 14492 ft | 264 kts | 186° |
| 2026-05-04 22:28 | -23.75862 | 150.50497 | 14888 ft | 270 kts | 186° |
| 2026-05-04 22:28 | -23.77757 | 150.50464 | 15297 ft | 277 kts | 180° |
| 2026-05-04 22:29 | -23.79701 | 150.50623 | 15702 ft | 283 kts | 178° |
| 2026-05-04 22:29 | -23.81692 | 150.50809 | 16099 ft | 288 kts | 179° |
| 2026-05-04 22:29 | -23.83689 | 150.50996 | 16539 ft | 290 kts | 179° |
| 2026-05-04 22:29 | -23.85705 | 150.51181 | 16954 ft | 292 kts | 179° |
| 2026-05-04 22:30 | -23.87745 | 150.51369 | 17362 ft | 295 kts | 180° |
| 2026-05-04 22:30 | -23.89807 | 150.51558 | 17760 ft | 297 kts | 180° |
| 2026-05-04 22:30 | -23.91878 | 150.51747 | 18146 ft | 300 kts | 180° |
| 2026-05-04 22:30 | -23.93958 | 150.51935 | 18521 ft | 302 kts | 180° |
| 2026-05-04 22:31 | -23.96082 | 150.52127 | 18893 ft | 305 kts | 181° |
| 2026-05-04 22:31 | -23.98176 | 150.52316 | 19248 ft | 307 kts | 181° |
| 2026-05-04 22:31 | -24.00325 | 150.52512 | 19619 ft | 308 kts | 181° |
| 2026-05-04 22:31 | -24.02487 | 150.52707 | 19978 ft | 310 kts | 181° |
| 2026-05-04 22:32 | -24.04636 | 150.52901 | 20321 ft | 311 kts | 181° |
| 2026-05-04 22:32 | -24.06548 | 150.53075 | 20600 ft | 313 kts | 181° |
| 2026-05-04 22:32 | -24.07986 | 150.53204 | 20799 ft | 314 kts | 181° |
| 2026-05-04 22:32 | -24.10159 | 150.53401 | 21096 ft | 316 kts | 182° |
| 2026-05-04 22:33 | -24.12382 | 150.53603 | 21389 ft | 317 kts | 182° |
| 2026-05-04 22:33 | -24.14581 | 150.53801 | 21663 ft | 319 kts | 182° |
| 2026-05-04 22:33 | -24.16781 | 150.54001 | 21915 ft | 320 kts | 182° |
| 2026-05-04 22:33 | -24.19024 | 150.54204 | 22164 ft | 322 kts | 182° |
| 2026-05-04 22:34 | -24.21252 | 150.54405 | 22404 ft | 323 kts | 182° |
| 2026-05-04 22:34 | -24.23509 | 150.54610 | 22639 ft | 324 kts | 182° |
| 2026-05-04 22:34 | -24.25774 | 150.54814 | 22861 ft | 325 kts | 182° |
| 2026-05-04 22:34 | -24.28018 | 150.55017 | 23070 ft | 327 kts | 182° |
| 2026-05-04 22:35 | -24.30296 | 150.55223 | 23281 ft | 328 kts | 182° |
| 2026-05-04 22:35 | -24.32582 | 150.55431 | 23480 ft | 329 kts | 182° |
| 2026-05-04 22:35 | -24.34878 | 150.55638 | 23691 ft | 330 kts | 183° |
| 2026-05-04 22:35 | -24.37178 | 150.55847 | 23911 ft | 331 kts | 183° |
| 2026-05-04 22:36 | -24.39481 | 150.56055 | 24120 ft | 332 kts | 183° |
| 2026-05-04 22:36 | -24.41774 | 150.56264 | 24322 ft | 333 kts | 183° |
| 2026-05-04 22:36 | -24.44105 | 150.56474 | 24518 ft | 334 kts | 183° |
| 2026-05-04 22:36 | -24.46418 | 150.56685 | 24704 ft | 335 kts | 183° |
| 2026-05-04 22:37 | -24.48754 | 150.56897 | 24887 ft | 336 kts | 183° |
| 2026-05-04 22:37 | -24.51071 | 150.57065 | 25056 ft | 335 kts | 186° |
| 2026-05-04 22:37 | -24.53437 | 150.57111 | 25123 ft | 339 kts | 188° |
| 2026-05-04 22:37 | -24.55798 | 150.57136 | 25145 ft | 345 kts | 188° |
| 2026-05-04 22:38 | -24.58245 | 150.57170 | 25152 ft | 351 kts | 188° |
| 2026-05-04 22:38 | -24.60692 | 150.57208 | 25145 ft | 356 kts | 187° |
| 2026-05-04 22:38 | -24.63168 | 150.57251 | 25122 ft | 359 kts | 187° |
| 2026-05-04 22:38 | -24.65712 | 150.57297 | 25115 ft | 361 kts | 187° |
| 2026-05-04 22:39 | -24.68219 | 150.57346 | 25113 ft | 363 kts | 187° |
| 2026-05-04 22:39 | -24.70768 | 150.57396 | 25113 ft | 364 kts | 187° |
| 2026-05-04 22:39 | -24.73303 | 150.57446 | 25114 ft | 365 kts | 187° |
| 2026-05-04 22:39 | -24.75854 | 150.57498 | 25115 ft | 366 kts | 187° |
| 2026-05-04 22:40 | -24.78387 | 150.57550 | 25115 ft | 366 kts | 187° |
| 2026-05-04 22:40 | -24.80946 | 150.57602 | 25116 ft | 367 kts | 187° |
| 2026-05-04 22:40 | -24.83486 | 150.57654 | 25117 ft | 367 kts | 187° |
| 2026-05-04 22:40 | -24.86063 | 150.57706 | 25118 ft | 368 kts | 187° |
| 2026-05-04 22:41 | -24.88614 | 150.57758 | 25118 ft | 368 kts | 187° |
| 2026-05-04 22:41 | -24.91191 | 150.57811 | 25118 ft | 368 kts | 187° |
| 2026-05-04 22:41 | -24.93769 | 150.57863 | 25117 ft | 369 kts | 187° |
| 2026-05-04 22:41 | -24.96320 | 150.57916 | 25117 ft | 369 kts | 187° |
| 2026-05-04 22:42 | -24.98890 | 150.57968 | 25117 ft | 369 kts | 187° |
| 2026-05-04 22:42 | -25.01456 | 150.58022 | 25117 ft | 369 kts | 187° |
| 2026-05-04 22:42 | -25.04034 | 150.58073 | 25118 ft | 369 kts | 187° |
| 2026-05-04 22:42 | -25.06602 | 150.58125 | 25118 ft | 369 kts | 187° |
| 2026-05-04 22:43 | -25.09199 | 150.58180 | 25119 ft | 370 kts | 187° |
| 2026-05-04 22:43 | -25.11738 | 150.58232 | 25118 ft | 369 kts | 187° |
| 2026-05-04 22:43 | -25.14327 | 150.58285 | 25120 ft | 369 kts | 187° |
| 2026-05-04 22:43 | -25.16910 | 150.58339 | 25121 ft | 369 kts | 187° |
| 2026-05-04 22:44 | -25.19469 | 150.58391 | 25122 ft | 369 kts | 187° |
| 2026-05-04 22:44 | -25.22039 | 150.58444 | 25123 ft | 369 kts | 187° |
| 2026-05-04 22:44 | -25.24605 | 150.58496 | 25124 ft | 369 kts | 187° |
| 2026-05-04 22:44 | -25.27172 | 150.58550 | 25125 ft | 369 kts | 187° |
| 2026-05-04 22:45 | -25.29775 | 150.58603 | 25125 ft | 370 kts | 187° |
| 2026-05-04 22:45 | -25.34902 | 150.58708 | 25126 ft | 370 kts | 187° |
| 2026-05-04 22:45 | -25.37502 | 150.58762 | 25127 ft | 370 kts | 187° |
| 2026-05-04 22:46 | -25.40044 | 150.58813 | 25128 ft | 370 kts | 188° |
| 2026-05-04 22:46 | -25.42639 | 150.58867 | 25128 ft | 370 kts | 188° |
| 2026-05-04 22:46 | -25.45219 | 150.58920 | 25129 ft | 370 kts | 188° |
| 2026-05-04 22:46 | -25.47786 | 150.58974 | 25130 ft | 370 kts | 188° |
| 2026-05-04 22:47 | -25.50371 | 150.59027 | 25130 ft | 370 kts | 188° |
| 2026-05-04 22:47 | -25.52957 | 150.59080 | 25131 ft | 371 kts | 188° |
| 2026-05-04 22:47 | -25.55532 | 150.59134 | 25131 ft | 371 kts | 188° |
| 2026-05-04 22:47 | -25.58119 | 150.59187 | 25131 ft | 371 kts | 188° |
| 2026-05-04 22:48 | -25.60713 | 150.59241 | 25132 ft | 371 kts | 188° |
| 2026-05-04 22:48 | -25.63302 | 150.59293 | 25132 ft | 371 kts | 188° |
| 2026-05-04 22:48 | -25.65870 | 150.59346 | 25132 ft | 371 kts | 188° |
| 2026-05-04 22:48 | -25.68450 | 150.59399 | 25132 ft | 371 kts | 188° |
| 2026-05-04 22:49 | -25.71054 | 150.59454 | 25133 ft | 371 kts | 188° |
| 2026-05-04 22:49 | -25.73629 | 150.59508 | 25133 ft | 371 kts | 188° |
| 2026-05-04 22:49 | -25.76234 | 150.59561 | 25133 ft | 372 kts | 188° |
| 2026-05-04 22:49 | -25.78822 | 150.59613 | 25134 ft | 372 kts | 188° |
| 2026-05-04 22:50 | -25.81399 | 150.59668 | 25135 ft | 372 kts | 188° |
| 2026-05-04 22:50 | -25.83971 | 150.59721 | 25136 ft | 372 kts | 188° |
| 2026-05-04 22:50 | -25.86578 | 150.59775 | 25137 ft | 372 kts | 188° |
| 2026-05-04 22:50 | -25.89145 | 150.59828 | 25138 ft | 372 kts | 188° |
| 2026-05-04 22:51 | -25.91753 | 150.59883 | 25139 ft | 372 kts | 188° |
| 2026-05-04 22:51 | -25.94356 | 150.59937 | 25140 ft | 372 kts | 188° |
| 2026-05-04 22:51 | -25.96944 | 150.59992 | 25139 ft | 372 kts | 188° |
| 2026-05-04 22:51 | -25.99532 | 150.60045 | 25136 ft | 373 kts | 188° |
| 2026-05-04 22:52 | -26.02122 | 150.60098 | 25133 ft | 373 kts | 188° |
| 2026-05-04 22:52 | -26.04735 | 150.60153 | 25130 ft | 373 kts | 188° |
| 2026-05-04 22:52 | -26.07320 | 150.60208 | 25132 ft | 373 kts | 188° |
| 2026-05-04 22:52 | -26.09924 | 150.60261 | 25134 ft | 373 kts | 188° |
| 2026-05-04 22:53 | -26.12517 | 150.60316 | 25135 ft | 373 kts | 188° |
| 2026-05-04 22:53 | -26.15116 | 150.60370 | 25134 ft | 373 kts | 188° |
| 2026-05-04 22:53 | -26.17716 | 150.60425 | 25131 ft | 373 kts | 188° |
| 2026-05-04 22:53 | -26.20312 | 150.60478 | 25131 ft | 374 kts | 188° |
| 2026-05-04 22:54 | -26.22920 | 150.60532 | 25131 ft | 374 kts | 188° |
| 2026-05-04 22:54 | -26.25506 | 150.60586 | 25133 ft | 374 kts | 188° |
| 2026-05-04 22:54 | -26.28122 | 150.60641 | 25134 ft | 374 kts | 188° |
| 2026-05-04 22:54 | -26.30728 | 150.60695 | 25135 ft | 374 kts | 188° |
| 2026-05-04 22:55 | -26.33357 | 150.60750 | 25135 ft | 374 kts | 188° |
| 2026-05-04 22:55 | -26.35963 | 150.60805 | 25136 ft | 374 kts | 188° |
| 2026-05-04 22:55 | -26.38564 | 150.60858 | 25136 ft | 374 kts | 188° |
| 2026-05-04 22:55 | -26.41160 | 150.60913 | 25137 ft | 374 kts | 188° |
| 2026-05-04 22:56 | -26.43749 | 150.60968 | 25137 ft | 374 kts | 188° |
| 2026-05-04 22:56 | -26.46384 | 150.61023 | 25137 ft | 374 kts | 188° |
| 2026-05-04 22:56 | -26.48972 | 150.61078 | 25138 ft | 374 kts | 188° |
| 2026-05-04 22:56 | -26.51595 | 150.61133 | 25139 ft | 374 kts | 188° |
| 2026-05-04 22:57 | -26.54172 | 150.61186 | 25139 ft | 374 kts | 188° |
| 2026-05-04 22:57 | -26.56807 | 150.61241 | 25139 ft | 374 kts | 188° |
| 2026-05-04 22:57 | -26.59401 | 150.61298 | 25139 ft | 374 kts | 188° |
| 2026-05-04 22:57 | -26.61995 | 150.61351 | 25139 ft | 374 kts | 188° |
| 2026-05-04 22:58 | -26.64629 | 150.61406 | 25140 ft | 374 kts | 188° |
| 2026-05-04 22:58 | -26.67206 | 150.61461 | 25140 ft | 374 kts | 188° |
| 2026-05-04 22:58 | -26.69842 | 150.61516 | 25140 ft | 374 kts | 188° |
| 2026-05-04 22:58 | -26.72437 | 150.61571 | 25139 ft | 374 kts | 188° |
| 2026-05-04 22:59 | -26.75039 | 150.61626 | 25139 ft | 374 kts | 188° |
| 2026-05-04 22:59 | -26.77664 | 150.61684 | 25138 ft | 375 kts | 188° |
| 2026-05-04 22:59 | -26.80255 | 150.61791 | 25138 ft | 376 kts | 187° |
| 2026-05-04 22:59 | -26.82879 | 150.61922 | 25138 ft | 376 kts | 187° |
| 2026-05-04 23:00 | -26.85490 | 150.62054 | 25139 ft | 376 kts | 187° |
| 2026-05-04 23:00 | -26.88113 | 150.62184 | 25139 ft | 376 kts | 187° |
| 2026-05-04 23:00 | -26.90725 | 150.62312 | 25140 ft | 376 kts | 187° |
| 2026-05-04 23:00 | -26.93350 | 150.62444 | 25139 ft | 375 kts | 187° |
| 2026-05-04 23:01 | -26.95954 | 150.62570 | 25140 ft | 375 kts | 187° |
| 2026-05-04 23:01 | -26.98556 | 150.62695 | 25140 ft | 375 kts | 187° |
| 2026-05-04 23:01 | -27.01193 | 150.62822 | 25141 ft | 375 kts | 187° |
| 2026-05-04 23:01 | -27.03775 | 150.62946 | 25142 ft | 376 kts | 187° |
| 2026-05-04 23:02 | -27.06421 | 150.63074 | 25142 ft | 376 kts | 187° |
| 2026-05-04 23:02 | -27.09012 | 150.63197 | 25143 ft | 376 kts | 187° |
| 2026-05-04 23:02 | -27.11644 | 150.63325 | 25141 ft | 376 kts | 187° |
| 2026-05-04 23:02 | -27.14257 | 150.63451 | 25143 ft | 376 kts | 187° |
| 2026-05-04 23:03 | -27.16881 | 150.63576 | 25144 ft | 376 kts | 187° |
| 2026-05-04 23:03 | -27.19476 | 150.63701 | 25144 ft | 375 kts | 187° |
| 2026-05-04 23:03 | -27.22093 | 150.63826 | 25145 ft | 375 kts | 187° |
| 2026-05-04 23:03 | -27.24717 | 150.63953 | 25146 ft | 376 kts | 187° |
| 2026-05-04 23:04 | -27.27307 | 150.64078 | 25146 ft | 376 kts | 187° |
| 2026-05-04 23:04 | -27.29946 | 150.64204 | 25146 ft | 376 kts | 187° |
| 2026-05-04 23:04 | -27.32537 | 150.64329 | 25146 ft | 376 kts | 187° |
| 2026-05-04 23:04 | -27.35174 | 150.64456 | 25146 ft | 376 kts | 187° |
| 2026-05-04 23:05 | -27.37776 | 150.64581 | 25146 ft | 376 kts | 187° |
| 2026-05-04 23:05 | -27.40400 | 150.64708 | 25146 ft | 375 kts | 187° |
| 2026-05-04 23:05 | -27.43001 | 150.64833 | 25146 ft | 375 kts | 187° |
| 2026-05-04 23:05 | -27.45590 | 150.64958 | 25146 ft | 376 kts | 187° |
| 2026-05-04 23:06 | -27.48210 | 150.65085 | 25143 ft | 375 kts | 187° |
| 2026-05-04 23:06 | -27.50826 | 150.65212 | 25144 ft | 375 kts | 187° |
| 2026-05-04 23:06 | -27.53433 | 150.65338 | 25146 ft | 374 kts | 187° |
| 2026-05-04 23:06 | -27.56027 | 150.65463 | 25148 ft | 374 kts | 187° |
| 2026-05-04 23:07 | -27.58653 | 150.65590 | 25149 ft | 374 kts | 187° |
| 2026-05-04 23:07 | -27.61237 | 150.65715 | 25151 ft | 374 kts | 187° |
| 2026-05-04 23:07 | -27.63856 | 150.65842 | 25151 ft | 374 kts | 187° |
| 2026-05-04 23:07 | -27.66446 | 150.65967 | 25150 ft | 374 kts | 187° |
| 2026-05-04 23:08 | -27.69049 | 150.66093 | 25148 ft | 374 kts | 187° |
| 2026-05-04 23:08 | -27.71675 | 150.66220 | 25146 ft | 374 kts | 187° |
| 2026-05-04 23:08 | -27.74250 | 150.66345 | 25145 ft | 374 kts | 187° |
| 2026-05-04 23:08 | -27.76866 | 150.66472 | 25144 ft | 374 kts | 187° |
| 2026-05-04 23:09 | -27.79459 | 150.66597 | 25143 ft | 374 kts | 187° |
| 2026-05-04 23:09 | -27.82081 | 150.66725 | 25143 ft | 374 kts | 187° |
| 2026-05-04 23:09 | -27.84668 | 150.66852 | 25143 ft | 374 kts | 187° |
| 2026-05-04 23:09 | -27.87283 | 150.66978 | 25143 ft | 374 kts | 187° |
| 2026-05-04 23:10 | -27.89894 | 150.67105 | 25143 ft | 374 kts | 187° |
| 2026-05-04 23:10 | -27.92488 | 150.67232 | 25143 ft | 374 kts | 187° |
| 2026-05-04 23:10 | -27.95098 | 150.67358 | 25143 ft | 374 kts | 187° |
| 2026-05-04 23:10 | -27.97697 | 150.67485 | 25143 ft | 374 kts | 187° |
| 2026-05-04 23:11 | -28.00320 | 150.67613 | 25143 ft | 375 kts | 187° |
| 2026-05-04 23:11 | -28.02908 | 150.67738 | 25145 ft | 375 kts | 187° |
| 2026-05-04 23:11 | -28.05538 | 150.67866 | 25150 ft | 375 kts | 187° |
| 2026-05-04 23:11 | -28.08124 | 150.67993 | 25151 ft | 375 kts | 187° |
| 2026-05-04 23:12 | -28.10751 | 150.68121 | 25150 ft | 375 kts | 187° |
| 2026-05-04 23:12 | -28.13343 | 150.68248 | 25149 ft | 375 kts | 187° |
| 2026-05-04 23:12 | -28.15951 | 150.68376 | 25145 ft | 375 kts | 187° |
| 2026-05-04 23:12 | -28.18556 | 150.68503 | 25146 ft | 374 kts | 187° |
| 2026-05-04 23:13 | -28.21152 | 150.68631 | 25149 ft | 374 kts | 187° |
| 2026-05-04 23:13 | -28.23781 | 150.68759 | 25154 ft | 373 kts | 187° |
| 2026-05-04 23:13 | -28.26367 | 150.68886 | 25158 ft | 373 kts | 187° |
| 2026-05-04 23:13 | -28.28965 | 150.69014 | 25161 ft | 373 kts | 187° |
| 2026-05-04 23:14 | -28.31574 | 150.69141 | 25163 ft | 373 kts | 187° |
| 2026-05-04 23:14 | -28.34173 | 150.69269 | 25166 ft | 374 kts | 187° |
| 2026-05-04 23:14 | -28.36743 | 150.69394 | 25167 ft | 374 kts | 187° |
| 2026-05-04 23:14 | -28.39344 | 150.69522 | 25167 ft | 374 kts | 187° |
| 2026-05-04 23:15 | -28.41974 | 150.69650 | 25167 ft | 374 kts | 187° |
| 2026-05-04 23:15 | -28.44576 | 150.69778 | 25167 ft | 374 kts | 187° |
| 2026-05-04 23:15 | -28.46948 | 150.69894 | 25167 ft | 374 kts | 187° |
| 2026-05-04 23:15 | -28.49778 | 150.70035 | 25166 ft | 374 kts | 187° |
| 2026-05-04 23:16 | -28.52381 | 150.70163 | 25166 ft | 374 kts | 187° |
| 2026-05-04 23:16 | -28.54962 | 150.70291 | 25165 ft | 372 kts | 187° |
| 2026-05-04 23:16 | -28.57549 | 150.70418 | 25165 ft | 372 kts | 187° |
| 2026-05-04 23:16 | -28.60130 | 150.70546 | 25166 ft | 372 kts | 187° |
| 2026-05-04 23:17 | -28.62720 | 150.70673 | 25166 ft | 372 kts | 187° |
| 2026-05-04 23:17 | -28.65305 | 150.70799 | 25166 ft | 373 kts | 187° |
| 2026-05-04 23:17 | -28.67885 | 150.70927 | 25166 ft | 373 kts | 187° |
| 2026-05-04 23:17 | -28.70478 | 150.71056 | 25164 ft | 371 kts | 187° |
| 2026-05-04 23:18 | -28.73072 | 150.71184 | 25166 ft | 371 kts | 187° |
| 2026-05-04 23:18 | -28.75639 | 150.71310 | 25167 ft | 372 kts | 187° |
| 2026-05-04 23:18 | -28.78221 | 150.71437 | 25167 ft | 372 kts | 187° |
| 2026-05-04 23:18 | -28.80829 | 150.71565 | 25166 ft | 372 kts | 187° |
| 2026-05-04 23:19 | -28.83403 | 150.71693 | 25166 ft | 373 kts | 187° |
| 2026-05-04 23:19 | -28.86025 | 150.71823 | 25166 ft | 373 kts | 187° |
| 2026-05-04 23:19 | -28.88596 | 150.71950 | 25166 ft | 373 kts | 187° |
| 2026-05-04 23:19 | -28.91179 | 150.72078 | 25166 ft | 373 kts | 187° |
| 2026-05-04 23:20 | -28.93797 | 150.72208 | 25166 ft | 373 kts | 187° |
| 2026-05-04 23:20 | -28.96400 | 150.72337 | 25166 ft | 373 kts | 187° |
| 2026-05-04 23:20 | -28.98997 | 150.72466 | 25166 ft | 373 kts | 187° |
| 2026-05-04 23:20 | -29.01564 | 150.72594 | 25166 ft | 373 kts | 187° |
| 2026-05-04 23:21 | -29.04166 | 150.72723 | 25166 ft | 373 kts | 187° |
| 2026-05-04 23:21 | -29.06755 | 150.72853 | 25167 ft | 373 kts | 186° |
| 2026-05-04 23:21 | -29.09367 | 150.72983 | 25168 ft | 373 kts | 186° |
| 2026-05-04 23:21 | -29.11950 | 150.73111 | 25167 ft | 373 kts | 186° |
| 2026-05-04 23:22 | -29.14540 | 150.73241 | 25168 ft | 372 kts | 186° |
| 2026-05-04 23:22 | -29.17122 | 150.73369 | 25169 ft | 372 kts | 186° |
| 2026-05-04 23:22 | -29.19721 | 150.73500 | 25171 ft | 372 kts | 186° |
| 2026-05-04 23:22 | -29.22312 | 150.73630 | 25172 ft | 372 kts | 186° |
| 2026-05-04 23:23 | -29.24885 | 150.73758 | 25173 ft | 371 kts | 186° |
| 2026-05-04 23:23 | -29.27498 | 150.73888 | 25175 ft | 372 kts | 186° |
| 2026-05-04 23:23 | -29.30076 | 150.74016 | 25176 ft | 371 kts | 186° |
| 2026-05-04 23:23 | -29.32666 | 150.74146 | 25177 ft | 371 kts | 186° |
| 2026-05-04 23:24 | -29.35226 | 150.74272 | 25178 ft | 371 kts | 186° |
| 2026-05-04 23:24 | -29.37804 | 150.74402 | 25180 ft | 371 kts | 186° |
| 2026-05-04 23:24 | -29.40415 | 150.74532 | 25181 ft | 371 kts | 186° |
| 2026-05-04 23:24 | -29.42987 | 150.74661 | 25182 ft | 371 kts | 186° |
| 2026-05-04 23:25 | -29.45565 | 150.74791 | 25183 ft | 371 kts | 186° |
| 2026-05-04 23:25 | -29.48132 | 150.74919 | 25184 ft | 372 kts | 186° |
| 2026-05-04 23:25 | -29.50752 | 150.75050 | 25184 ft | 372 kts | 186° |
| 2026-05-04 23:25 | -29.51689 | 150.75098 | 25183 ft | 372 kts | 186° |
| 2026-05-04 23:27 | -29.51982 | 150.75111 | 25183 ft | 372 kts | 186° |
| 2026-05-04 23:27 | -29.54556 | 150.75241 | 25179 ft | 372 kts | 186° |
| 2026-05-04 23:27 | -29.57174 | 150.75372 | 25187 ft | 371 kts | 186° |
| 2026-05-04 23:27 | -29.59759 | 150.75502 | 25176 ft | 371 kts | 186° |
| 2026-05-04 23:28 | -29.62297 | 150.75542 | 25171 ft | 368 kts | 189° |
| 2026-05-04 23:28 | -29.63867 | 150.75510 | 25170 ft | 367 kts | 190° |